Time;durP1;ratioP1;P1;durP2;ratioP2;P2;SDS_P1;SDS_P2;PMS_P1;PMS_P2;Temp;Humidity;BMP_temperature;BMP_pressure;BME280_temperature;BME280_humidity;BME280_pressure;Samples;Min_cycle;Max_cycle;Signal;HPM_P1;HPM_P2
2021/11/18 00:01:11;;;;;;;156.73;82.85;;;230.40;2252.80;;;;;;5016446;28;20025;-78
2021/11/18 00:03:37;;;;;;;164.80;82.72;;;230.40;2252.80;;;;;;5034186;28;20033;-78
2021/11/18 00:06:03;;;;;;;153.48;87.38;;;230.40;2252.80;;;;;;5016072;28;20034;-75
2021/11/18 00:08:30;;;;;;;167.82;88.95;;;230.40;2252.80;;;;;;5016070;28;20025;-75
2021/11/18 00:11:00;;;;;;;159.32;87.18;;;230.40;2252.80;;;;;;5037733;28;20052;-76
2021/11/18 00:13:29;;;;;;;137.50;76.95;;;230.40;2252.80;;;;;;5020029;28;20175;-80
2021/11/18 00:15:55;;;;;;;132.02;75.70;;;230.40;2252.80;;;;;;5045029;28;20009;-76
2021/11/18 00:18:24;;;;;;;139.15;71.25;;;230.40;2252.80;;;;;;5033595;28;20040;-77
2021/11/18 00:21:09;;;;;;;119.75;71.05;;;205.70;2252.80;;;;;;5024133;28;20029;-76
2021/11/18 00:23:39;;;;;;;115.88;61.42;;;205.70;2252.80;;;;;;5040247;28;20099;-76
2021/11/18 00:26:06;;;;;;;92.53;52.00;;;205.70;2252.80;;;;;;5054491;28;20494;-77
2021/11/18 00:28:33;;;;;;;103.03;49.85;;;205.70;2252.80;;;;;;5060594;28;20029;-76
2021/11/18 00:30:59;;;;;;;75.28;41.80;;;205.70;2252.80;;;;;;5054016;28;20071;-76
2021/11/18 00:33:26;;;;;;;76.00;42.17;;;205.60;2252.80;;;;;;5053448;28;20036;-75
2021/11/18 00:35:54;;;;;;;80.78;40.03;;;205.70;2252.80;;;;;;5035666;28;20074;-76
2021/11/18 00:38:20;;;;;;;79.10;40.58;;;205.70;2252.80;;;;;;5036425;28;20033;-75
2021/11/18 00:40:49;;;;;;;72.95;41.90;;;205.70;2252.80;;;;;;5035954;28;20029;-77
2021/11/18 00:43:16;;;;;;;71.03;37.63;;;205.70;2252.80;;;;;;5021972;28;20082;-77
2021/11/18 00:45:43;;;;;;;78.75;43.35;;;205.70;2252.80;;;;;;5040876;28;20063;-76
2021/11/18 00:48:10;;;;;;;80.57;42.10;;;230.40;2252.80;;;;;;5038319;28;20479;-76
2021/11/18 00:50:46;;;;;;;81.90;46.90;;;230.40;2252.80;;;;;;5036443;28;20025;-78
2021/11/18 00:53:12;;;;;;;89.00;47.47;;;230.40;2252.80;;;;;;5035474;28;20044;-75
2021/11/18 00:55:37;;;;;;;103.43;56.38;;;230.40;2252.80;;;;;;5036192;28;20391;-77
2021/11/18 00:58:05;;;;;;;86.38;43.80;;;230.40;2252.80;;;;;;5036489;28;20033;-75
2021/11/18 01:00:33;;;;;;;85.65;43.67;;;230.40;2252.80;;;;;;5043361;28;20029;-76
2021/11/18 01:03:00;;;;;;;96.72;49.97;;;230.40;2252.80;;;;;;5059349;28;20039;-78
2021/11/18 01:05:28;;;;;;;89.85;47.08;;;230.50;2252.80;;;;;;5048148;28;20029;-79
2021/11/18 01:07:57;;;;;;;73.18;42.25;;;230.50;2252.80;;;;;;5066213;28;20044;-82
2021/11/18 01:10:25;;;;;;;67.05;38.38;;;230.40;2252.80;;;;;;5044573;28;20112;-77
2021/11/18 01:12:51;;;;;;;67.53;38.55;;;230.40;2252.80;;;;;;5040898;28;20035;-77
2021/11/18 01:15:22;;;;;;;86.00;45.78;;;230.50;2252.80;;;;;;5058467;28;20029;-77
2021/11/18 01:17:48;;;;;;;78.55;44.03;;;230.40;2252.80;;;;;;5042332;28;20025;-81
2021/11/18 01:20:16;;;;;;;77.28;40.53;;;230.40;2252.80;;;;;;5043083;28;20025;-76
2021/11/18 01:22:46;;;;;;;75.15;40.05;;;230.40;2252.80;;;;;;5060681;28;20021;-77
2021/11/18 01:25:14;;;;;;;92.30;50.90;;;205.70;2252.80;;;;;;5040744;28;20040;-78
2021/11/18 01:27:42;;;;;;;89.00;51.08;;;205.70;2252.80;;;;;;5040395;28;20033;-76
2021/11/18 01:30:13;;;;;;;96.55;53.15;;;205.70;2252.80;;;;;;5041330;28;20111;-77
2021/11/18 01:32:40;;;;;;;103.57;54.70;;;205.70;2252.80;;;;;;5037669;28;20128;-77
2021/11/18 01:35:07;;;;;;;91.85;54.83;;;205.70;2252.80;;;;;;5026294;28;20545;-77
2021/11/18 01:37:32;;;;;;;89.32;51.75;;;205.70;2252.80;;;;;;5032245;28;20064;-77
2021/11/18 01:39:58;;;;;;;95.82;53.35;;;205.70;2252.80;;;;;;5035067;28;20028;-76
2021/11/18 01:42:24;;;;;;;99.75;57.55;;;230.40;2252.80;;;;;;5038714;28;20048;-75
2021/11/18 01:44:51;;;;;;;97.78;55.08;;;230.40;2252.80;;;;;;5038467;28;20031;-77
2021/11/18 01:47:18;;;;;;;100.97;52.65;;;230.40;2252.80;;;;;;5038194;28;20028;-77
2021/11/18 01:49:46;;;;;;;95.18;52.70;;;230.40;2252.80;;;;;;5055807;28;20053;-77
2021/11/18 01:52:14;;;;;;;103.28;55.13;;;230.40;2252.80;;;;;;5037551;28;20471;-76
2021/11/18 01:54:42;;;;;;;116.97;52.90;;;230.50;2252.80;;;;;;5045818;28;20021;-77
2021/11/18 01:57:12;;;;;;;98.93;54.55;;;230.50;2252.80;;;;;;5043116;28;20033;-75
2021/11/18 01:59:41;;;;;;;103.53;59.03;;;230.50;2252.80;;;;;;5048042;28;20400;-76
2021/11/18 02:02:09;;;;;;;94.85;53.92;;;230.50;2252.80;;;;;;5043113;28;20029;-77
2021/11/18 02:04:51;;;;;;;95.82;53.80;;;230.50;2252.80;;;;;;5043382;28;20033;-77
2021/11/18 02:07:18;;;;;;;103.35;58.00;;;230.60;2252.80;;;;;;5038741;28;20021;-78
2021/11/18 02:09:47;;;;;;;89.93;50.28;;;230.50;2252.80;;;;;;5038380;28;20060;-76
2021/11/18 02:12:23;;;;;;;75.50;42.88;;;230.50;2252.80;;;;;;5055957;28;20053;-77
2021/11/18 02:14:48;;;;;;;79.45;44.30;;;230.50;2252.80;;;;;;5037815;28;20033;-77
2021/11/18 02:17:17;;;;;;;78.68;43.67;;;230.60;2252.80;;;;;;5038250;28;20024;-77
2021/11/18 02:19:49;;;;;;;83.22;50.53;;;230.50;2252.80;;;;;;5038478;28;20124;-78
2021/11/18 02:22:16;;;;;;;82.57;45.47;;;230.60;2252.80;;;;;;5038051;28;20021;-77
2021/11/18 02:24:52;;;;;;;82.22;48.20;;;230.60;2252.80;;;;;;5037245;28;20037;-74
2021/11/18 02:27:20;;;;;;;91.53;45.55;;;230.60;2252.80;;;;;;5019170;28;20029;-78
2021/11/18 02:29:49;;;;;;;82.15;44.80;;;230.60;2252.80;;;;;;5025608;28;20032;-76
2021/11/18 02:32:19;;;;;;;76.05;43.30;;;230.60;2252.80;;;;;;5029313;28;20420;-76
2021/11/18 02:34:56;;;;;;;72.97;41.20;;;230.60;2252.80;;;;;;5021995;28;20033;-77
2021/11/18 02:37:23;;;;;;;77.75;41.63;;;230.60;2252.80;;;;;;5017825;28;20044;-76
2021/11/18 02:39:49;;;;;;;73.20;39.35;;;230.60;2252.80;;;;;;5017439;28;20025;-76
2021/11/18 02:42:16;;;;;;;63.78;34.63;;;230.70;2252.80;;;;;;5018511;28;20156;-77
2021/11/18 02:44:42;;;;;;;57.78;36.53;;;230.60;2252.80;;;;;;5024873;28;20083;-78
2021/11/18 02:47:12;;;;;;;64.90;35.95;;;230.60;2252.80;;;;;;5033213;28;20025;-79
2021/11/18 02:49:45;;;;;;;64.38;35.22;;;230.60;2252.80;;;;;;5024184;28;20025;-76
2021/11/18 02:52:12;;;;;;;60.42;35.70;;;230.60;2252.80;;;;;;5023311;28;20384;-77
2021/11/18 02:54:39;;;;;;;71.30;39.13;;;230.60;2252.80;;;;;;5029270;28;20469;-78
2021/11/18 02:57:06;;;;;;;58.55;36.28;;;230.60;2252.80;;;;;;5020039;28;20037;-77
2021/11/18 02:59:32;;;;;;;60.55;37.83;;;230.60;2252.80;;;;;;5017475;28;20494;-76
2021/11/18 03:01:58;;;;;;;69.95;40.42;;;230.60;2252.80;;;;;;5016964;28;20041;-78
2021/11/18 03:04:24;;;;;;;100.57;53.45;;;230.60;2252.80;;;;;;5016787;28;20022;-78
2021/11/18 03:06:49;;;;;;;86.32;48.08;;;230.60;2252.80;;;;;;5017175;28;20052;-78
2021/11/18 03:09:15;;;;;;;102.45;51.85;;;230.60;2252.80;;;;;;5016832;28;20032;-79
2021/11/18 03:11:41;;;;;;;87.82;46.80;;;230.60;2252.80;;;;;;5016801;28;20029;-79
2021/11/18 03:14:07;;;;;;;85.13;48.13;;;230.60;2252.80;;;;;;5016612;28;20456;-80
2021/11/18 03:16:33;;;;;;;82.95;46.92;;;230.50;2252.80;;;;;;5016477;28;20388;-78
2021/11/18 03:18:59;;;;;;;82.57;47.03;;;230.50;2252.80;;;;;;5016826;28;20044;-78
2021/11/18 03:21:28;;;;;;;83.25;45.72;;;230.60;2252.80;;;;;;5016484;28;20032;-77
2021/11/18 03:23:55;;;;;;;82.15;46.80;;;230.60;2252.80;;;;;;5016591;28;20130;-78
2021/11/18 03:26:28;;;;;;;85.85;46.42;;;230.60;2252.80;;;;;;5016313;28;20446;-78
2021/11/18 03:28:55;;;;;;;92.40;47.50;;;230.60;2252.80;;;;;;5016056;28;20021;-79
2021/11/18 03:31:21;;;;;;;85.55;48.33;;;230.60;2252.80;;;;;;5033920;28;20051;-77
2021/11/18 03:34:10;;;;;;;86.57;46.65;;;230.60;2252.80;;;;;;5015998;28;20471;-78
2021/11/18 03:36:36;;;;;;;86.00;48.90;;;230.70;2252.80;;;;;;5016550;28;20028;-79
2021/11/18 03:39:08;;;;;;;82.15;45.85;;;230.70;2252.80;;;;;;5015503;28;20100;-78
2021/11/18 03:41:36;;;;;;;83.10;47.53;;;230.70;2252.80;;;;;;5016216;28;20411;-77
2021/11/18 03:44:05;;;;;;;74.05;43.92;;;230.70;2252.80;;;;;;5016113;28;20065;-77
2021/11/18 03:46:54;;;;;;;77.25;45.40;;;230.70;2252.80;;;;;;5016022;28;20068;-78
2021/11/18 03:49:21;;;;;;;79.05;46.65;;;230.70;2252.80;;;;;;5015876;28;20068;-77
2021/11/18 03:51:48;;;;;;;81.93;48.60;;;230.80;2252.80;;;;;;5016204;28;20083;-77
2021/11/18 03:54:17;;;;;;;91.60;45.80;;;230.80;2252.80;;;;;;5015831;28;20057;-78
2021/11/18 03:56:44;;;;;;;79.28;46.53;;;230.80;2252.80;;;;;;5015948;28;20475;-76
2021/11/18 03:59:21;;;;;;;80.68;43.22;;;230.80;2252.80;;;;;;5015746;28;20029;-77
2021/11/18 04:01:49;;;;;;;78.93;44.50;;;230.80;2252.80;;;;;;5016327;28;20064;-78
2021/11/18 04:04:17;;;;;;;79.25;46.60;;;230.80;2252.80;;;;;;5033452;28;20022;-78
2021/11/18 04:06:43;;;;;;;80.07;46.30;;;230.80;2252.80;;;;;;5015798;28;20104;-78
2021/11/18 04:09:10;;;;;;;90.85;46.30;;;230.80;2252.80;;;;;;5015950;28;20471;-77
2021/11/18 04:11:39;;;;;;;78.40;42.95;;;230.80;2252.80;;;;;;5033397;28;20483;-79
2021/11/18 04:14:05;;;;;;;79.55;42.67;;;230.80;2252.80;;;;;;5015365;28;20042;-78
2021/11/18 04:16:31;;;;;;;77.32;46.00;;;230.80;2252.80;;;;;;5015543;28;20025;-79
2021/11/18 04:18:57;;;;;;;85.45;48.25;;;230.80;2252.80;;;;;;5015718;28;20029;-77
2021/11/18 04:21:23;;;;;;;97.72;50.40;;;230.80;2252.80;;;;;;5015689;28;20538;-78
2021/11/18 04:23:48;;;;;;;107.95;58.58;;;230.80;2252.80;;;;;;5015670;28;20060;-78
2021/11/18 04:26:15;;;;;;;106.55;56.97;;;230.80;2252.80;;;;;;5015252;28;20120;-78
2021/11/18 04:28:41;;;;;;;116.22;66.07;;;230.80;2252.80;;;;;;5015837;28;20041;-77
2021/11/18 04:31:13;;;;;;;109.00;62.20;;;230.80;2252.80;;;;;;5023112;28;20043;-78
2021/11/18 04:33:40;;;;;;;96.88;54.53;;;230.80;2252.80;;;;;;5035266;28;20042;-78
2021/11/18 04:36:08;;;;;;;111.88;56.90;;;230.80;2252.80;;;;;;5025899;28;20122;-78
2021/11/18 04:38:34;;;;;;;90.30;54.22;;;230.80;2252.80;;;;;;5036224;28;20119;-78
2021/11/18 04:41:01;;;;;;;114.05;59.45;;;230.80;2252.80;;;;;;5039338;28;20105;-77
2021/11/18 04:43:27;;;;;;;97.18;55.15;;;230.80;2252.80;;;;;;5038971;28;20049;-78
2021/11/18 04:45:53;;;;;;;106.40;57.72;;;230.80;2252.80;;;;;;5039152;28;20095;-78
2021/11/18 04:48:19;;;;;;;89.50;51.20;;;230.80;2252.80;;;;;;5039314;28;20483;-77
2021/11/18 04:50:46;;;;;;;92.45;55.17;;;230.80;2252.80;;;;;;5039104;28;20449;-78
2021/11/18 04:53:12;;;;;;;100.35;50.97;;;230.90;2252.80;;;;;;5039079;28;20039;-78
2021/11/18 04:55:39;;;;;;;92.00;51.38;;;230.90;2252.80;;;;;;5056182;28;20125;-78
2021/11/18 04:58:05;;;;;;;80.30;45.95;;;230.90;2252.80;;;;;;5056965;28;20052;-78
2021/11/18 05:00:39;;;;;;;79.13;44.53;;;230.90;2252.80;;;;;;5039203;28;20021;-78
2021/11/18 05:03:06;;;;;;;83.00;47.47;;;230.90;2252.80;;;;;;5056374;28;20017;-77
2021/11/18 05:05:33;;;;;;;87.22;50.35;;;230.80;2252.80;;;;;;5052919;28;20029;-77
2021/11/18 05:08:00;;;;;;;84.40;45.03;;;230.80;2252.80;;;;;;5026927;28;20112;-79
2021/11/18 05:10:27;;;;;;;88.35;48.33;;;230.80;2252.80;;;;;;5030388;28;20030;-76
2021/11/18 05:12:53;;;;;;;86.47;47.40;;;230.80;2252.80;;;;;;5019080;28;20151;-78
2021/11/18 05:15:27;;;;;;;83.07;46.95;;;230.80;2252.80;;;;;;5019585;28;20445;-75
2021/11/18 05:17:53;;;;;;;84.80;43.35;;;230.70;2252.80;;;;;;5026905;28;20029;-75
2021/11/18 05:20:21;;;;;;;85.78;44.20;;;230.70;2252.80;;;;;;5034105;28;20410;-76
2021/11/18 05:22:47;;;;;;;79.38;44.72;;;230.70;2252.80;;;;;;5018958;28;20029;-77
2021/11/18 05:25:14;;;;;;;84.82;43.75;;;230.70;2252.80;;;;;;5018746;28;20032;-78
2021/11/18 05:27:40;;;;;;;75.20;44.58;;;230.70;2252.80;;;;;;5018480;28;20091;-77
2021/11/18 05:30:09;;;;;;;84.05;44.88;;;230.70;2252.80;;;;;;5018409;28;20072;-77
2021/11/18 05:32:36;;;;;;;85.80;48.28;;;230.70;2252.80;;;;;;5034526;28;20087;-77
2021/11/18 05:35:02;;;;;;;74.18;45.78;;;230.70;2252.80;;;;;;5018757;28;20030;-77
2021/11/18 05:37:28;;;;;;;83.32;46.88;;;230.70;2252.80;;;;;;5032333;28;20048;-80
2021/11/18 05:39:54;;;;;;;98.30;55.47;;;230.70;2252.80;;;;;;5038180;28;20474;-79
2021/11/18 05:42:20;;;;;;;106.70;56.05;;;230.70;2252.80;;;;;;5037493;28;20450;-79
2021/11/18 05:44:49;;;;;;;91.10;50.28;;;230.70;2252.80;;;;;;5038091;28;20029;-76
2021/11/18 05:47:16;;;;;;;72.38;42.17;;;230.70;2252.80;;;;;;5038553;28;20112;-78
2021/11/18 05:49:41;;;;;;;83.85;46.10;;;230.70;2252.80;;;;;;5055574;28;20082;-77
2021/11/18 05:52:07;;;;;;;81.05;45.63;;;230.70;2252.80;;;;;;5030097;28;20116;-78
2021/11/18 05:54:33;;;;;;;81.97;47.72;;;230.70;2252.80;;;;;;5018687;28;20120;-78
2021/11/18 05:56:59;;;;;;;75.10;45.13;;;230.70;2252.80;;;;;;5012768;28;20056;-79
2021/11/18 05:59:24;;;;;;;77.18;44.50;;;230.70;2252.80;;;;;;5035884;28;20100;-79
2021/11/18 06:01:50;;;;;;;85.10;47.30;;;230.80;2252.80;;;;;;5018444;28;20044;-78
2021/11/18 06:04:16;;;;;;;91.45;52.80;;;230.80;2252.80;;;;;;5018267;28;20056;-77
2021/11/18 06:06:42;;;;;;;164.38;90.47;;;230.80;2252.80;;;;;;5026104;28;20391;-77
2021/11/18 06:09:08;;;;;;;159.50;85.03;;;230.90;2252.80;;;;;;5034834;28;20032;-77
2021/11/18 06:11:37;;;;;;;106.88;56.80;;;230.90;2252.80;;;;;;5017764;28;20379;-78
2021/11/18 06:14:05;;;;;;;82.35;50.60;;;230.90;2252.80;;;;;;5017792;28;20041;-78
2021/11/18 06:16:31;;;;;;;106.13;58.60;;;230.90;2252.80;;;;;;5017897;28;20021;-78
2021/11/18 06:19:00;;;;;;;102.95;57.17;;;230.90;2252.80;;;;;;5017806;28;20498;-78
2021/11/18 06:21:26;;;;;;;121.90;67.80;;;230.90;2252.80;;;;;;5018028;28;20025;-78
2021/11/18 06:23:52;;;;;;;136.85;71.82;;;231.00;2252.80;;;;;;5017684;28;20053;-80
2021/11/18 06:26:18;;;;;;;116.43;64.22;;;231.00;2252.80;;;;;;5017080;28;20087;-79
2021/11/18 06:28:45;;;;;;;135.43;74.65;;;231.00;2252.80;;;;;;5035236;28;20029;-79
2021/11/18 06:31:14;;;;;;;130.23;74.22;;;231.00;2252.80;;;;;;5017577;28;20026;-78
2021/11/18 06:33:41;;;;;;;124.75;74.25;;;231.00;2252.80;;;;;;5035007;28;20037;-77
2021/11/18 06:36:07;;;;;;;140.98;70.22;;;231.00;2252.80;;;;;;5017554;28;20468;-79
2021/11/18 06:38:34;;;;;;;129.65;71.88;;;231.00;2252.80;;;;;;5017372;28;20033;-77
2021/11/18 06:41:00;;;;;;;110.43;59.85;;;231.00;2252.80;;;;;;5017398;28;20112;-79
2021/11/18 06:43:25;;;;;;;116.88;59.60;;;230.90;2252.80;;;;;;5017140;28;20081;-78
2021/11/18 06:45:52;;;;;;;110.30;60.00;;;230.90;2252.80;;;;;;5017294;28;20038;-78
2021/11/18 06:48:22;;;;;;;91.97;51.70;;;230.90;2252.80;;;;;;5017058;28;20432;-77
2021/11/18 06:50:48;;;;;;;124.57;72.10;;;230.90;2252.80;;;;;;5016981;28;20033;-76
2021/11/18 06:53:15;;;;;;;186.40;103.18;;;230.90;2252.80;;;;;;5017044;28;20042;-78
2021/11/18 06:55:41;;;;;;;142.13;77.78;;;230.90;2252.80;;;;;;5016748;28;20034;-77
2021/11/18 06:58:07;;;;;;;154.65;84.30;;;230.90;2252.80;;;;;;5034545;28;20059;-78
2021/11/18 07:00:34;;;;;;;140.77;82.90;;;230.90;2252.80;;;;;;5016891;28;20359;-76
2021/11/18 07:03:04;;;;;;;138.45;73.95;;;230.90;2252.80;;;;;;5016762;28;20095;-77
2021/11/18 07:05:29;;;;;;;145.60;79.03;;;230.90;2252.80;;;;;;5016916;28;20430;-78
2021/11/18 07:07:55;;;;;;;139.77;75.68;;;230.90;2252.80;;;;;;5016819;28;20021;-77
2021/11/18 07:10:21;;;;;;;156.07;89.28;;;230.90;2252.80;;;;;;5016511;28;20057;-78
2021/11/18 07:12:52;;;;;;;153.77;84.05;;;231.00;2252.80;;;;;;5016588;28;20032;-79
2021/11/18 07:15:18;;;;;;;122.35;72.07;;;231.00;2252.80;;;;;;5016712;28;20369;-78
2021/11/18 07:17:43;;;;;;;142.70;83.78;;;231.10;2252.80;;;;;;5016514;28;20056;-79
2021/11/18 07:20:10;;;;;;;128.52;76.88;;;231.10;2252.80;;;;;;5016484;28;20060;-79
2021/11/18 07:22:36;;;;;;;146.45;85.68;;;231.10;2252.80;;;;;;5016257;28;20022;-75
2021/11/18 07:25:05;;;;;;;112.28;65.70;;;231.10;2252.80;;;;;;5016217;28;20026;-77
2021/11/18 07:27:31;;;;;;;115.55;65.78;;;231.10;2252.80;;;;;;5016437;28;20468;-79
2021/11/18 07:29:57;;;;;;;117.78;66.63;;;231.10;2252.80;;;;;;5016564;28;20032;-78
2021/11/18 07:32:23;;;;;;;112.28;65.18;;;231.20;2252.80;;;;;;5017106;28;20029;-78
2021/11/18 07:34:50;;;;;;;109.03;63.53;;;231.20;2252.80;;;;;;5017658;28;20056;-76
2021/11/18 07:37:15;;;;;;;98.05;56.83;;;231.20;2252.80;;;;;;5020419;28;20029;-77
2021/11/18 07:39:41;;;;;;;89.13;53.80;;;231.20;2252.80;;;;;;5036234;28;20033;-77
2021/11/18 07:42:07;;;;;;;86.65;49.78;;;231.20;2252.80;;;;;;5017998;28;20048;-75
2021/11/18 07:44:33;;;;;;;95.38;51.30;;;231.10;2252.80;;;;;;5035966;28;20047;-76
2021/11/18 07:46:58;;;;;;;100.88;55.38;;;231.10;2252.80;;;;;;5035497;28;20032;-77
2021/11/18 07:49:24;;;;;;;100.07;58.65;;;231.10;2252.80;;;;;;5020050;28;20029;-76
2021/11/18 07:51:50;;;;;;;109.45;66.40;;;231.20;2252.80;;;;;;5017496;28;20025;-75
2021/11/18 07:54:18;;;;;;;106.63;64.50;;;231.20;2252.80;;;;;;5028970;28;20059;-76
2021/11/18 07:56:44;;;;;;;109.97;62.42;;;231.20;2252.80;;;;;;5034937;28;20030;-78
2021/11/18 07:59:10;;;;;;;109.85;61.33;;;231.20;2252.80;;;;;;5033662;28;20029;-75
2021/11/18 08:01:39;;;;;;;103.93;58.20;;;231.30;2252.80;;;;;;5029910;28;20041;-74
2021/11/18 08:04:06;;;;;;;111.15;63.78;;;231.30;2252.80;;;;;;5031820;28;20022;-76
2021/11/18 08:06:32;;;;;;;109.45;63.10;;;231.30;2252.80;;;;;;5026911;28;20672;-78
2021/11/18 08:08:58;;;;;;;106.30;64.97;;;256.00;2252.80;;;;;;5027786;28;20025;-77
2021/11/18 08:11:30;;;;;;;112.63;63.35;;;256.00;2252.80;;;;;;5044088;28;20032;-76
2021/11/18 08:13:57;;;;;;;124.03;70.32;;;256.00;2252.80;;;;;;5025796;28;20042;-76
2021/11/18 08:16:23;;;;;;;111.75;64.63;;;256.00;2252.80;;;;;;5031023;28;20029;-77
2021/11/18 08:18:50;;;;;;;120.25;66.68;;;256.00;2252.80;;;;;;5029455;28;20021;-74
2021/11/18 08:21:16;;;;;;;126.00;69.35;;;256.00;2252.80;;;;;;5025845;28;20395;-76
2021/11/18 08:23:44;;;;;;;109.72;62.97;;;256.10;2252.80;;;;;;5024667;28;20033;-77
2021/11/18 08:26:11;;;;;;;113.40;66.60;;;256.00;2252.80;;;;;;5021634;28;20134;-77
2021/11/18 08:28:37;;;;;;;110.32;63.13;;;256.10;2252.80;;;;;;5020213;28;20364;-77
2021/11/18 08:31:03;;;;;;;127.57;69.30;;;256.10;2252.80;;;;;;5037749;28;20029;-77
2021/11/18 08:33:30;;;;;;;130.68;67.22;;;256.10;2252.80;;;;;;5021001;28;20034;-77
2021/11/18 08:35:56;;;;;;;117.70;68.20;;;256.10;2252.80;;;;;;5020039;28;20033;-79
2021/11/18 08:38:23;;;;;;;108.53;65.57;;;256.10;2252.80;;;;;;5019739;28;20032;-76
2021/11/18 08:40:53;;;;;;;125.65;67.82;;;256.10;2252.80;;;;;;5035516;28;20036;-75
2021/11/18 08:43:20;;;;;;;119.88;69.45;;;256.10;2252.80;;;;;;5057787;28;20045;-75
2021/11/18 08:45:46;;;;;;;123.22;67.07;;;256.10;2252.80;;;;;;5059144;28;20099;-74
2021/11/18 08:48:13;;;;;;;126.70;72.82;;;256.20;2252.80;;;;;;5047323;28;20411;-76
2021/11/18 08:50:42;;;;;;;131.57;72.47;;;256.20;2252.80;;;;;;5055689;28;20020;-76
2021/11/18 08:53:09;;;;;;;125.03;69.60;;;256.20;2252.80;;;;;;5053626;28;20041;-76
2021/11/18 08:55:39;;;;;;;116.65;65.53;;;256.20;2252.80;;;;;;5053405;28;20426;-76
2021/11/18 08:58:07;;;;;;;122.00;65.57;;;256.20;2252.80;;;;;;5049810;28;20493;-77
2021/11/18 09:00:41;;;;;;;128.88;70.10;;;256.20;2252.80;;;;;;5039137;28;20033;-75
2021/11/18 09:03:07;;;;;;;123.93;70.90;;;256.20;2252.80;;;;;;5039362;28;20471;-74
2021/11/18 09:05:33;;;;;;;116.38;64.38;;;256.30;2252.80;;;;;;5042544;28;20048;-75
2021/11/18 09:08:06;;;;;;;124.78;68.20;;;256.30;2252.80;;;;;;5041713;28;20025;-76
2021/11/18 09:10:33;;;;;;;98.60;56.78;;;256.30;2252.80;;;;;;5044382;28;20040;-74
2021/11/18 09:12:59;;;;;;;90.10;55.45;;;256.20;2252.80;;;;;;5042601;28;20029;-76
2021/11/18 09:15:28;;;;;;;95.68;55.90;;;256.20;2252.80;;;;;;5060943;28;20033;-76
2021/11/18 09:17:56;;;;;;;98.13;55.03;;;256.30;2252.80;;;;;;5041270;28;20017;-76
2021/11/18 09:20:23;;;;;;;98.28;52.95;;;256.30;2252.80;;;;;;5038958;28;20025;-77
2021/11/18 09:22:57;;;;;;;89.95;47.58;;;256.30;2252.80;;;;;;5039391;28;20032;-75
2021/11/18 09:25:29;;;;;;;88.13;49.65;;;256.30;2252.80;;;;;;5037877;28;20028;-77
2021/11/18 09:27:57;;;;;;;84.13;42.92;;;256.30;2252.80;;;;;;5039565;28;20028;-77
2021/11/18 09:30:30;;;;;;;89.22;49.03;;;256.30;2252.80;;;;;;5056622;28;20028;-78
2021/11/18 09:33:00;;;;;;;84.78;47.05;;;256.30;2252.80;;;;;;5056643;28;20021;-78
2021/11/18 09:35:48;;;;;;;68.50;39.22;;;256.30;2252.80;;;;;;5056631;28;20037;-79
2021/11/18 09:38:17;;;;;;;70.93;42.63;;;256.30;2252.80;;;;;;5038469;28;20478;-77
2021/11/18 09:41:12;;;;;;;81.35;48.42;;;256.30;2252.80;;;;;;5038187;28;20028;-78
2021/11/18 09:44:03;;;;;;;71.97;39.92;;;256.40;2252.80;;;;;;5034749;28;20136;-78
2021/11/18 09:46:56;;;;;;;68.03;38.47;;;256.40;2252.80;;;;;;5035171;28;20387;-76
2021/11/18 09:49:48;;;;;;;65.93;35.17;;;256.40;2252.80;;;;;;5035123;28;20055;-76
2021/11/18 09:52:20;;;;;;;36.47;22.25;;;256.30;2252.80;;;;;;5034714;28;20487;-77
2021/11/18 09:54:50;;;;;;;32.10;20.13;;;256.20;2252.80;;;;;;5034962;28;20041;-77
2021/11/18 09:57:42;;;;;;;42.45;21.50;;;256.20;2252.80;;;;;;5034788;28;20044;-78
2021/11/18 10:00:16;;;;;;;34.13;19.88;;;256.20;2252.80;;;;;;4939857;29;20031;-77
2021/11/18 10:03:21;;;;;;;37.47;21.55;;;256.10;2252.80;;;;;;4939655;29;20170;-76
2021/11/18 10:05:56;;;;;;;31.52;19.95;;;256.20;2252.80;;;;;;4880093;29;20068;-77
2021/11/18 10:08:35;;;;;;;30.58;17.02;;;256.10;2252.80;;;;;;4864455;29;20057;-77
2021/11/18 10:11:41;;;;;;;27.55;17.23;;;256.00;2252.80;;;;;;4864380;29;20030;-76
2021/11/18 10:14:35;;;;;;;33.63;18.55;;;256.00;2252.80;;;;;;4876864;29;20451;-76
2021/11/18 10:17:10;;;;;;;22.83;14.82;;;231.30;2252.80;;;;;;4880170;29;20487;-77
2021/11/18 10:19:41;;;;;;;25.58;16.20;;;231.10;2252.80;;;;;;4880226;29;20072;-76
2021/11/18 10:22:12;;;;;;;24.98;15.57;;;231.10;2252.80;;;;;;4864115;29;20025;-75
2021/11/18 10:24:41;;;;;;;24.50;14.68;;;231.10;2252.80;;;;;;4864273;29;20068;-76
2021/11/18 10:27:21;;;;;;;30.10;16.52;;;231.00;2252.80;;;;;;4863537;29;20047;-77
2021/11/18 10:30:19;;;;;;;20.58;11.32;;;231.00;2252.80;;;;;;4863963;29;20032;-78
2021/11/18 10:33:09;;;;;;;20.63;12.75;;;230.90;2252.80;;;;;;4823872;29;20509;-79
2021/11/18 10:35:59;;;;;;;20.67;12.57;;;230.90;2252.80;;;;;;4824055;29;20106;-78
2021/11/18 10:38:33;;;;;;;19.35;12.35;;;230.80;2252.80;;;;;;4879363;29;20049;-78
2021/11/18 10:41:28;;;;;;;17.23;11.75;;;230.90;2252.80;;;;;;4863572;29;20084;-78
2021/11/18 10:44:13;;;;;;;18.52;12.10;;;230.90;2252.80;;;;;;4958013;28;20039;-77
2021/11/18 10:47:00;;;;;;;20.92;13.02;;;230.90;2252.80;;;;;;4957773;28;20027;-77
2021/11/18 10:49:49;;;;;;;17.58;12.00;;;230.90;2252.80;;;;;;4958600;28;20018;-78
2021/11/18 10:52:25;;;;;;;18.98;10.27;;;230.90;2252.80;;;;;;4958541;28;20027;-76
2021/11/18 10:55:01;;;;;;;21.73;13.05;;;230.90;2252.80;;;;;;4957825;28;20121;-80
2021/11/18 10:57:29;;;;;;;20.95;12.40;;;230.90;2252.80;;;;;;4957399;28;20042;-78
2021/11/18 11:00:16;;;;;;;20.55;10.98;;;231.00;2252.80;;;;;;4957658;28;20030;-78
2021/11/18 11:02:42;;;;;;;21.25;12.48;;;230.90;2252.80;;;;;;4942589;28;20046;-79
2021/11/18 11:05:33;;;;;;;20.73;11.73;;;230.80;2252.80;;;;;;4954845;28;20548;-76
2021/11/18 11:08:01;;;;;;;19.48;11.20;;;230.80;2252.80;;;;;;4955815;28;20121;-77
2021/11/18 11:10:35;;;;;;;15.90;11.82;;;230.90;2252.80;;;;;;5012452;28;20051;-78
2021/11/18 11:13:08;;;;;;;29.35;15.82;;;230.80;2252.80;;;;;;5032907;28;20551;-77
2021/11/18 11:15:40;;;;;;;22.98;14.38;;;230.80;2252.80;;;;;;5033712;28;20490;-76
2021/11/18 11:18:18;;;;;;;37.95;20.45;;;230.90;2252.80;;;;;;5033352;28;20036;-77
2021/11/18 11:20:51;;;;;;;28.92;17.45;;;230.90;2252.80;;;;;;5033073;28;20056;-77
2021/11/18 11:23:23;;;;;;;44.47;21.80;;;230.90;2252.80;;;;;;5033350;28;20037;-77
2021/11/18 11:25:55;;;;;;;27.08;16.20;;;231.00;2252.80;;;;;;5032817;28;20029;-79
2021/11/18 11:28:41;;;;;;;27.75;15.02;;;230.90;2252.80;;;;;;5034472;28;20065;-78
2021/11/18 11:31:30;;;;;;;23.00;14.43;;;231.00;2252.80;;;;;;5033426;28;20096;-78
2021/11/18 11:34:30;;;;;;;24.42;12.60;;;231.00;2252.80;;;;;;5032901;28;20034;-78
2021/11/18 11:37:04;;;;;;;21.80;13.40;;;231.00;2252.80;;;;;;5033119;28;20021;-78
2021/11/18 11:39:59;;;;;;;22.73;13.50;;;231.00;2252.80;;;;;;5033091;28;20041;-78
2021/11/18 11:42:24;;;;;;;22.48;14.05;;;230.90;2252.80;;;;;;4979529;28;20038;-79
2021/11/18 11:44:53;;;;;;;22.10;13.80;;;231.00;2252.80;;;;;;5012204;28;20041;-79
2021/11/18 11:47:56;;;;;;;25.48;14.80;;;231.00;2252.80;;;;;;4995878;28;20129;-77
2021/11/18 11:50:52;;;;;;;26.03;15.70;;;231.00;2252.80;;;;;;4996176;28;20506;-78
2021/11/18 11:53:24;;;;;;;25.80;14.85;;;231.00;2252.80;;;;;;5012274;28;20394;-77
2021/11/18 11:56:21;;;;;;;45.53;25.67;;;231.00;2252.80;;;;;;4995475;28;20041;-78
2021/11/18 11:59:14;;;;;;;21.52;16.27;;;231.10;2252.80;;;;;;5012221;28;20515;-79
2021/11/18 12:01:49;;;;;;;;;;;231.10;2252.80;;;;;;4996288;28;20388;-78
2021/11/18 12:04:37;;;;;;;23.88;13.13;;;231.10;2252.80;;;;;;4995851;28;19906;-77
2021/11/18 12:07:21;;;;;;;21.52;13.75;;;231.10;2252.80;;;;;;5012120;28;20046;-76
2021/11/18 12:10:28;;;;;;;20.80;12.88;;;231.10;2252.80;;;;;;4995845;28;20116;-78
2021/11/18 12:12:54;;;;;;;25.98;14.15;;;231.10;2252.80;;;;;;4918611;29;20054;-78